Time;durP1;ratioP1;P1;durP2;ratioP2;P2;SDS_P1;SDS_P2;PMS_P1;PMS_P2;Temp;Humidity;BMP_temperature;BMP_pressure;BME280_temperature;BME280_humidity;BME280_pressure;Samples;Min_cycle;Max_cycle;Signal;HPM_P1;HPM_P2
2022/01/27 00:05:40;;;;;;;78.80;30.55;;;5.00;99.90;;;;;;5012789;28;20117;-72
2022/01/27 00:11:08;;;;;;;82.45;31.38;;;5.00;99.90;;;;;;5006742;28;20438;-73
2022/01/27 00:13:31;;;;;;;86.97;34.03;;;5.00;99.90;;;;;;5004808;28;20536;-72
2022/01/27 00:16:13;;;;;;;95.10;32.50;;;5.00;99.90;;;;;;5010161;28;20031;-72
2022/01/27 00:18:41;;;;;;;83.00;32.75;;;5.00;99.90;;;;;;4992886;28;20613;-71
2022/01/27 00:21:07;;;;;;;82.97;32.25;;;5.00;99.90;;;;;;5013258;28;20028;-72
2022/01/27 00:23:33;;;;;;;83.30;33.72;;;5.00;99.90;;;;;;5013401;28;20057;-71
2022/01/27 00:25:59;;;;;;;85.38;33.28;;;5.00;99.90;;;;;;5013252;28;20519;-72
2022/01/27 00:28:24;;;;;;;82.32;33.58;;;5.00;99.90;;;;;;5009112;28;20038;-72
2022/01/27 00:30:50;;;;;;;86.68;31.38;;;5.00;99.90;;;;;;5009105;28;20029;-72
2022/01/27 00:33:16;;;;;;;88.88;34.47;;;5.00;99.90;;;;;;5009336;28;20041;-72
2022/01/27 00:35:41;;;;;;;75.25;31.02;;;5.00;99.90;;;;;;4996817;28;20045;-72
2022/01/27 00:38:07;;;;;;;92.13;34.08;;;5.10;99.90;;;;;;5011621;28;20108;-71
2022/01/27 00:40:33;;;;;;;79.15;32.92;;;5.10;99.90;;;;;;5017765;28;20539;-71
2022/01/27 00:42:58;;;;;;;84.22;33.03;;;5.10;99.90;;;;;;5011710;28;20026;-72
2022/01/27 00:45:25;;;;;;;84.20;33.58;;;5.10;99.90;;;;;;4995122;28;20397;-74
2022/01/27 00:47:51;;;;;;;88.38;34.17;;;5.10;99.90;;;;;;5011051;28;20434;-72
2022/01/27 00:50:18;;;;;;;84.20;33.67;;;5.10;99.90;;;;;;4993878;28;20056;-73
2022/01/27 00:52:52;;;;;;;79.57;32.60;;;5.10;99.90;;;;;;5003622;28;20084;-72
2022/01/27 00:55:18;;;;;;;90.57;33.75;;;5.10;99.90;;;;;;4986800;28;20423;-73
2022/01/27 00:58:08;;;;;;;94.90;36.30;;;5.10;99.90;;;;;;5006596;28;20034;-72
2022/01/27 01:00:40;;;;;;;85.40;33.08;;;5.10;99.90;;;;;;5005497;28;20026;-72
2022/01/27 01:03:10;;;;;;;83.15;34.90;;;5.10;99.90;;;;;;5003399;28;20030;-72
2022/01/27 01:19:21;;;;;;;93.57;35.75;;;5.10;99.90;;;;;;5007772;28;20030;-73
2022/01/27 01:32:52;;;;;;;86.78;35.63;;;5.00;99.90;;;;;;5001066;28;20394;-72
2022/01/27 01:35:27;;;;;;;94.77;36.93;;;5.10;99.90;;;;;;5008468;28;20495;-73
2022/01/27 01:37:53;;;;;;;85.93;37.05;;;5.10;99.90;;;;;;5010095;28;20495;-72
2022/01/27 01:40:19;;;;;;;99.95;37.78;;;5.00;99.90;;;;;;5010464;28;20060;-72
2022/01/27 01:42:45;;;;;;;95.72;37.45;;;5.00;99.90;;;;;;5009824;28;20496;-72
2022/01/27 01:45:17;;;;;;;94.72;37.28;;;5.00;99.90;;;;;;5009850;28;20033;-72
2022/01/27 01:47:43;;;;;;;92.53;37.55;;;5.00;99.90;;;;;;5007470;28;20514;-72
2022/01/27 01:50:10;;;;;;;86.18;37.17;;;5.00;99.90;;;;;;5018755;28;20044;-72
2022/01/27 01:52:36;;;;;;;89.05;37.45;;;5.00;99.90;;;;;;5010731;28;20072;-73
2022/01/27 01:55:04;;;;;;;83.95;35.17;;;5.10;99.90;;;;;;5007760;28;20507;-74
2022/01/27 01:57:30;;;;;;;81.53;35.92;;;5.10;99.90;;;;;;5010242;28;20113;-72
2022/01/27 01:59:56;;;;;;;86.30;35.50;;;5.10;99.90;;;;;;5009652;28;20130;-72
2022/01/27 02:02:21;;;;;;;81.68;35.50;;;5.10;99.90;;;;;;5014002;28;20022;-72
2022/01/27 02:04:47;;;;;;;76.80;33.63;;;5.10;99.90;;;;;;5010764;28;20480;-72
2022/01/27 02:07:39;;;;;;;79.20;33.58;;;5.10;99.90;;;;;;5010014;28;20021;-72
2022/01/27 02:10:17;;;;;;;81.40;33.17;;;5.20;99.90;;;;;;5007243;28;20054;-72
2022/01/27 02:18:12;;;;;;;80.68;32.58;;;5.20;99.90;;;;;;5013064;28;20030;-72
2022/01/27 02:20:40;;;;;;;67.15;31.40;;;5.20;99.90;;;;;;5008605;28;20488;-73
2022/01/27 02:23:08;;;;;;;69.80;30.67;;;5.20;99.90;;;;;;5008873;28;20478;-72
2022/01/27 02:25:34;;;;;;;70.90;31.00;;;5.20;99.90;;;;;;5009591;28;20041;-72
2022/01/27 02:28:00;;;;;;;67.45;28.92;;;5.30;99.90;;;;;;5011728;28;20105;-72
2022/01/27 02:30:27;;;;;;;68.55;28.65;;;5.30;99.90;;;;;;5009593;28;20042;-72
2022/01/27 02:32:54;;;;;;;63.15;29.33;;;5.30;99.90;;;;;;5004110;28;20468;-72
2022/01/27 02:35:25;;;;;;;68.22;30.70;;;5.20;99.90;;;;;;5004417;28;20573;-71
2022/01/27 02:37:51;;;;;;;65.63;29.45;;;5.30;99.90;;;;;;5004126;28;20109;-73
2022/01/27 02:40:48;;;;;;;66.25;29.25;;;5.30;99.90;;;;;;5001975;28;20041;-72
2022/01/27 02:43:14;;;;;;;63.35;29.38;;;5.30;99.90;;;;;;5004067;28;20105;-72
2022/01/27 02:45:49;;;;;;;67.95;28.98;;;5.20;99.90;;;;;;5012667;28;20133;-72
2022/01/27 02:48:18;;;;;;;66.32;28.42;;;5.30;99.90;;;;;;5007436;28;20034;-72
2022/01/27 02:50:44;;;;;;;65.07;29.27;;;5.30;99.90;;;;;;5014332;28;20079;-72
2022/01/27 02:53:10;;;;;;;64.55;28.80;;;5.30;99.90;;;;;;5008800;28;20423;-72
2022/01/27 02:55:36;;;;;;;62.55;27.35;;;5.30;99.90;;;;;;5009360;28;20030;-72
2022/01/27 02:58:03;;;;;;;63.40;27.60;;;5.30;99.90;;;;;;5009886;28;20041;-70
2022/01/27 03:00:30;;;;;;;64.68;28.25;;;5.30;99.90;;;;;;4991404;28;20026;-70
2022/01/27 03:02:56;;;;;;;58.42;27.65;;;5.30;99.90;;;;;;5018118;28;20604;-71
2022/01/27 03:05:21;;;;;;;60.30;27.27;;;5.30;99.90;;;;;;4993478;28;20026;-70
2022/01/27 03:07:48;;;;;;;58.30;25.63;;;5.30;99.90;;;;;;5004994;28;20041;-71
2022/01/27 03:10:18;;;;;;;60.65;26.98;;;5.30;99.90;;;;;;5008038;28;20030;-70
2022/01/27 03:12:46;;;;;;;59.17;26.95;;;5.30;99.90;;;;;;4997721;28;20062;-71
2022/01/27 03:15:12;;;;;;;68.32;26.73;;;5.40;99.90;;;;;;5014227;28;20442;-71
2022/01/27 03:17:39;;;;;;;66.22;26.70;;;5.30;99.90;;;;;;5009079;28;20029;-70
2022/01/27 03:20:08;;;;;;;61.22;27.00;;;5.30;99.90;;;;;;5010737;28;20030;-71
2022/01/27 03:22:33;;;;;;;64.20;26.98;;;5.30;99.90;;;;;;5009137;28;20439;-71
2022/01/27 03:24:59;;;;;;;57.08;25.70;;;5.30;99.90;;;;;;5008505;28;20033;-71
2022/01/27 03:27:27;;;;;;;64.15;27.13;;;5.40;99.90;;;;;;4995282;28;20037;-72
2022/01/27 03:29:52;;;;;;;62.15;26.83;;;5.40;99.90;;;;;;5009883;28;20056;-71
2022/01/27 03:32:20;;;;;;;59.90;26.50;;;5.40;99.90;;;;;;5007705;28;20069;-71
2022/01/27 03:34:46;;;;;;;61.38;25.90;;;5.30;99.90;;;;;;5005963;28;20033;-71
2022/01/27 03:37:12;;;;;;;62.13;26.50;;;5.40;99.90;;;;;;5016493;28;20030;-71
2022/01/27 03:39:39;;;;;;;58.40;26.10;;;5.30;99.90;;;;;;5010786;28;20021;-71
2022/01/27 03:42:05;;;;;;;61.55;27.75;;;5.40;99.90;;;;;;4987562;28;20032;-71
2022/01/27 03:44:31;;;;;;;55.88;25.45;;;5.40;99.90;;;;;;4991281;28;20447;-71
2022/01/27 03:46:57;;;;;;;54.60;24.98;;;5.40;99.90;;;;;;5008414;28;20018;-71
2022/01/27 03:49:23;;;;;;;60.13;26.67;;;5.40;99.90;;;;;;5010868;28;20068;-73
2022/01/27 03:51:51;;;;;;;60.67;27.70;;;5.40;99.90;;;;;;5010974;28;20101;-71
2022/01/27 03:54:17;;;;;;;55.00;25.40;;;5.30;99.90;;;;;;5008072;28;20052;-71
2022/01/27 03:56:42;;;;;;;62.05;28.08;;;5.40;99.90;;;;;;5008782;28;20488;-71
2022/01/27 03:59:09;;;;;;;58.17;26.88;;;5.30;99.90;;;;;;5009716;28;20038;-72
2022/01/27 04:01:36;;;;;;;66.68;27.85;;;5.40;99.90;;;;;;5012680;28;20029;-71
2022/01/27 04:04:01;;;;;;;62.55;27.70;;;5.30;99.90;;;;;;5006834;28;20048;-71
2022/01/27 04:06:33;;;;;;;65.32;29.55;;;5.30;99.90;;;;;;5009047;28;20113;-71
2022/01/27 04:09:00;;;;;;;65.60;29.08;;;5.30;99.90;;;;;;5010209;28;20036;-72
2022/01/27 04:11:26;;;;;;;64.47;29.88;;;5.20;99.90;;;;;;5008960;28;20026;-70
2022/01/27 04:13:52;;;;;;;73.88;29.63;;;5.20;99.90;;;;;;5018346;28;20034;-70
2022/01/27 04:16:18;;;;;;;66.03;30.23;;;5.20;99.90;;;;;;5007151;28;20189;-72
2022/01/27 04:18:45;;;;;;;76.75;31.45;;;5.10;99.90;;;;;;5011604;28;20491;-70
2022/01/27 04:21:12;;;;;;;66.38;30.02;;;5.10;99.90;;;;;;5019177;28;20030;-71
2022/01/27 04:23:37;;;;;;;73.10;30.15;;;5.10;99.90;;;;;;5010072;28;20040;-71
2022/01/27 04:26:05;;;;;;;76.57;31.83;;;5.10;99.90;;;;;;4993116;28;20018;-71
2022/01/27 04:28:33;;;;;;;72.47;28.77;;;5.10;99.90;;;;;;5010380;28;20133;-70
2022/01/27 04:31:02;;;;;;;71.20;29.98;;;5.10;99.90;;;;;;5013122;28;20645;-70
2022/01/27 04:33:30;;;;;;;65.88;30.17;;;5.00;99.90;;;;;;5017419;28;20026;-70
2022/01/27 04:35:59;;;;;;;71.15;30.83;;;5.00;99.90;;;;;;5017336;28;20043;-71
2022/01/27 04:38:33;;;;;;;65.53;29.60;;;5.00;99.90;;;;;;5014101;28;20036;-70
2022/01/27 04:41:11;;;;;;;67.88;30.58;;;5.00;99.90;;;;;;5016669;28;20542;-71
2022/01/27 04:48:37;;;;;;;62.90;29.20;;;5.00;99.90;;;;;;5017151;28;20056;-70
2022/01/27 04:51:09;;;;;;;70.03;29.20;;;5.00;99.90;;;;;;4998427;28;20113;-71
2022/01/27 04:53:42;;;;;;;69.82;30.05;;;5.00;99.90;;;;;;5014927;28;20038;-70
2022/01/27 04:56:12;;;;;;;68.55;29.58;;;5.00;99.90;;;;;;5004351;28;20038;-71
2022/01/27 04:58:38;;;;;;;66.10;30.33;;;5.00;99.90;;;;;;5010354;28;20087;-73
2022/01/27 05:01:05;;;;;;;66.38;29.15;;;5.00;99.90;;;;;;5011772;28;20401;-72
2022/01/27 05:05:59;;;;;;;58.35;28.40;;;5.00;99.90;;;;;;5014765;28;20126;-71
2022/01/27 05:08:25;;;;;;;64.57;27.58;;;5.00;99.90;;;;;;4979442;28;20176;-71
2022/01/27 05:11:12;;;;;;;61.65;28.50;;;5.00;99.90;;;;;;5016978;28;20104;-71
2022/01/27 05:13:46;;;;;;;65.70;29.73;;;5.00;99.90;;;;;;5003672;28;20415;-72
2022/01/27 05:16:12;;;;;;;69.50;29.88;;;5.00;99.90;;;;;;5008970;28;20065;-71
2022/01/27 05:18:37;;;;;;;71.22;31.10;;;4.90;99.90;;;;;;5005715;28;20429;-71
2022/01/27 05:21:03;;;;;;;74.50;30.10;;;4.90;99.90;;;;;;5007977;28;20495;-71
2022/01/27 05:23:29;;;;;;;72.57;30.17;;;4.80;99.90;;;;;;5011981;28;20101;-72
2022/01/27 05:25:54;;;;;;;75.57;31.80;;;4.80;99.90;;;;;;5010602;28;20495;-72
2022/01/27 05:28:20;;;;;;;72.75;30.95;;;4.90;99.90;;;;;;5017314;28;20033;-70
2022/01/27 05:30:46;;;;;;;72.55;30.75;;;4.80;99.90;;;;;;5013122;28;20034;-71
2022/01/27 05:33:11;;;;;;;73.93;32.00;;;4.80;99.90;;;;;;5015760;28;20033;-70
2022/01/27 05:35:37;;;;;;;78.00;31.63;;;4.80;99.90;;;;;;5011251;28;20131;-71
2022/01/27 05:38:03;;;;;;;75.38;31.65;;;4.80;99.90;;;;;;4989581;28;20070;-72
2022/01/27 05:40:29;;;;;;;76.75;31.42;;;4.80;99.90;;;;;;5011110;28;20076;-70
2022/01/27 05:42:55;;;;;;;69.82;30.63;;;4.80;99.90;;;;;;5007426;28;20036;-70
2022/01/27 05:45:21;;;;;;;75.35;30.23;;;4.80;99.90;;;;;;5010238;28;20022;-70
2022/01/27 05:47:46;;;;;;;71.25;29.60;;;4.80;99.90;;;;;;4994616;28;20061;-72
2022/01/27 05:50:12;;;;;;;68.13;29.27;;;4.80;99.90;;;;;;5009741;28;20057;-71
2022/01/27 05:52:38;;;;;;;69.10;30.70;;;4.80;99.90;;;;;;5010629;28;20472;-73
2022/01/27 05:55:05;;;;;;;64.95;28.85;;;4.80;99.90;;;;;;5009468;28;20035;-71
2022/01/27 05:57:30;;;;;;;69.13;28.67;;;4.80;99.90;;;;;;5007275;28;20033;-70
2022/01/27 05:59:56;;;;;;;63.65;27.77;;;4.80;99.90;;;;;;5016912;28;20026;-71
2022/01/27 06:02:22;;;;;;;68.75;28.60;;;4.80;99.90;;;;;;5008191;28;20022;-71
2022/01/27 06:04:48;;;;;;;70.28;27.20;;;4.80;99.90;;;;;;5013085;28;20030;-72
2022/01/27 06:07:15;;;;;;;63.88;26.13;;;4.80;99.90;;;;;;5006467;28;20026;-70
2022/01/27 06:09:40;;;;;;;58.60;26.83;;;4.80;99.90;;;;;;4993405;28;20029;-70
2022/01/27 06:12:06;;;;;;;60.30;25.05;;;4.80;99.90;;;;;;5010674;28;20026;-71
2022/01/27 06:14:32;;;;;;;57.50;25.40;;;4.80;99.90;;;;;;5018180;28;20037;-72
2022/01/27 06:16:58;;;;;;;58.05;26.02;;;4.80;99.90;;;;;;5014689;28;20026;-70
2022/01/27 06:19:27;;;;;;;59.13;26.13;;;4.90;99.90;;;;;;5010496;28;20025;-70
2022/01/27 06:21:52;;;;;;;56.65;24.27;;;4.80;99.90;;;;;;5008567;28;20034;-73
2022/01/27 06:24:18;;;;;;;55.75;25.40;;;4.80;99.90;;;;;;5009908;28;20033;-70
2022/01/27 06:26:44;;;;;;;59.60;25.02;;;4.80;99.90;;;;;;5006417;28;20025;-71
2022/01/27 06:29:09;;;;;;;55.85;24.00;;;4.80;99.90;;;;;;4988384;28;20032;-71
2022/01/27 06:31:35;;;;;;;58.53;25.05;;;4.80;99.90;;;;;;5016988;28;20362;-72
2022/01/27 06:34:01;;;;;;;55.58;23.27;;;4.90;99.90;;;;;;5010022;28;20026;-71
2022/01/27 06:36:26;;;;;;;54.58;24.10;;;4.80;99.90;;;;;;5011380;28;20053;-72
2022/01/27 06:38:52;;;;;;;58.63;24.05;;;4.90;99.90;;;;;;5003185;28;20492;-70
2022/01/27 06:41:18;;;;;;;55.40;23.42;;;4.90;99.90;;;;;;5006289;28;20088;-70
2022/01/27 06:43:43;;;;;;;59.47;23.38;;;4.90;99.90;;;;;;5006935;28;20022;-72
2022/01/27 06:46:09;;;;;;;55.53;24.33;;;4.90;99.90;;;;;;4984563;28;20057;-71
2022/01/27 06:48:35;;;;;;;59.22;26.15;;;4.90;99.90;;;;;;5009428;28;20080;-70
2022/01/27 06:51:04;;;;;;;61.40;25.08;;;4.90;99.90;;;;;;5009245;28;20053;-71
2022/01/27 06:53:30;;;;;;;58.65;25.02;;;4.90;99.90;;;;;;5006416;28;20109;-70
2022/01/27 06:55:56;;;;;;;58.38;24.77;;;4.90;99.90;;;;;;5012966;28;20396;-72
2022/01/27 06:58:21;;;;;;;55.92;24.85;;;4.90;99.90;;;;;;4999430;28;20026;-71
2022/01/27 07:00:47;;;;;;;52.65;23.83;;;4.90;99.90;;;;;;5011489;28;20056;-71
2022/01/27 07:03:13;;;;;;;54.50;24.33;;;4.90;99.90;;;;;;5010055;28;20472;-71
2022/01/27 07:05:40;;;;;;;53.78;22.88;;;4.90;99.90;;;;;;5012631;28;20080;-71
2022/01/27 07:08:06;;;;;;;54.83;23.00;;;4.90;99.90;;;;;;5008732;28;20025;-71
2022/01/27 07:10:32;;;;;;;53.85;23.55;;;4.90;99.90;;;;;;5004018;28;20132;-72
2022/01/27 07:12:58;;;;;;;51.92;22.30;;;4.90;99.90;;;;;;5007131;28;20045;-70
2022/01/27 07:15:23;;;;;;;51.65;23.05;;;5.00;99.90;;;;;;5010461;28;20030;-70
2022/01/27 07:17:49;;;;;;;54.03;22.75;;;5.00;99.90;;;;;;5005908;28;20077;-71
2022/01/27 07:20:17;;;;;;;58.42;24.00;;;5.00;99.90;;;;;;5002949;28;20391;-70
2022/01/27 07:22:43;;;;;;;49.83;21.55;;;5.00;99.90;;;;;;5007648;28;20181;-74
2022/01/27 07:25:08;;;;;;;56.55;23.55;;;5.00;99.90;;;;;;5009519;28;20527;-73
2022/01/27 07:27:36;;;;;;;56.13;23.35;;;5.00;99.90;;;;;;5005720;28;20033;-73
2022/01/27 07:30:03;;;;;;;52.97;21.55;;;5.00;99.90;;;;;;5010192;28;20491;-73
2022/01/27 07:32:29;;;;;;;49.50;20.88;;;5.00;99.90;;;;;;4999450;28;20033;-73
2022/01/27 07:34:54;;;;;;;47.35;21.63;;;5.00;99.90;;;;;;5011959;28;20356;-73
2022/01/27 07:37:20;;;;;;;51.58;22.60;;;5.00;99.90;;;;;;4992488;28;20036;-73
2022/01/27 07:39:46;;;;;;;48.47;21.10;;;5.00;99.90;;;;;;5006460;28;20022;-73
2022/01/27 07:42:12;;;;;;;52.70;21.38;;;5.00;99.90;;;;;;5008501;28;20061;-73
2022/01/27 07:44:38;;;;;;;56.58;21.38;;;5.00;99.90;;;;;;5001924;28;20033;-74
2022/01/27 07:47:04;;;;;;;53.42;22.15;;;5.00;99.90;;;;;;5010286;28;20030;-73
2022/01/27 07:49:30;;;;;;;46.78;21.25;;;5.00;99.90;;;;;;5014250;28;20095;-74
2022/01/27 07:51:56;;;;;;;51.05;21.10;;;5.00;99.90;;;;;;5012958;28;20486;-73
2022/01/27 07:54:21;;;;;;;51.67;21.73;;;5.00;99.90;;;;;;5006265;28;20884;-74
2022/01/27 07:56:47;;;;;;;56.22;22.58;;;5.00;99.90;;;;;;5008123;28;20053;-74
2022/01/27 07:59:13;;;;;;;53.33;22.95;;;5.00;99.90;;;;;;5006160;28;20480;-73
2022/01/27 08:01:39;;;;;;;51.10;21.30;;;5.00;99.90;;;;;;5010812;28;20140;-71
2022/01/27 08:04:05;;;;;;;51.20;22.35;;;5.00;99.90;;;;;;5010190;28;20481;-70
2022/01/27 08:06:30;;;;;;;50.72;22.20;;;5.00;99.90;;;;;;5010714;28;20041;-71
2022/01/27 08:08:56;;;;;;;45.83;20.02;;;5.00;99.90;;;;;;5014213;28;20026;-72
2022/01/27 08:11:22;;;;;;;51.28;20.48;;;5.10;99.90;;;;;;5008608;28;20031;-73
2022/01/27 08:13:48;;;;;;;49.03;21.80;;;5.10;99.90;;;;;;5006795;28;20080;-73
2022/01/27 08:16:13;;;;;;;48.92;20.77;;;5.10;99.90;;;;;;5012171;28;20034;-72
2022/01/27 08:18:39;;;;;;;49.58;22.67;;;5.10;99.90;;;;;;5010601;28;20030;-70
2022/01/27 08:21:05;;;;;;;46.42;20.60;;;5.10;99.90;;;;;;5020632;28;20022;-71
2022/01/27 08:23:31;;;;;;;52.75;20.95;;;5.10;99.90;;;;;;5022229;28;20030;-72
2022/01/27 08:26:06;;;;;;;54.53;20.55;;;5.10;99.90;;;;;;5006346;28;20580;-70
2022/01/27 08:28:44;;;;;;;46.75;19.05;;;5.10;99.90;;;;;;4993923;28;20392;-69
2022/01/27 08:31:13;;;;;;;44.85;19.25;;;5.10;99.90;;;;;;4973431;28;20350;-72
2022/01/27 08:33:40;;;;;;;40.88;18.80;;;5.10;99.90;;;;;;4986945;28;20092;-71
2022/01/27 08:36:06;;;;;;;41.90;18.23;;;5.10;99.90;;;;;;5013057;28;20034;-71
2022/01/27 08:38:33;;;;;;;40.50;18.55;;;5.20;99.90;;;;;;4992660;28;20037;-72
2022/01/27 08:44:39;;;;;;;44.40;17.77;;;5.20;99.90;;;;;;5007602;28;20120;-71
2022/01/27 08:47:06;;;;;;;47.00;19.38;;;5.20;99.90;;;;;;4993699;28;20516;-71
2022/01/27 08:49:33;;;;;;;36.50;17.00;;;5.20;99.90;;;;;;5008861;28;20023;-73
2022/01/27 08:51:59;;;;;;;40.50;17.40;;;5.20;99.90;;;;;;5008178;28;20038;-71
2022/01/27 08:54:26;;;;;;;45.22;17.92;;;5.20;99.90;;;;;;5026891;22;20046;-74
2022/01/27 08:56:55;;;;;;;39.13;18.17;;;5.30;99.90;;;;;;5011931;28;20087;-73
2022/01/27 08:59:21;;;;;;;40.20;17.77;;;5.30;99.90;;;;;;5009063;28;20371;-72
2022/01/27 09:01:47;;;;;;;43.08;18.15;;;5.30;99.90;;;;;;5011596;28;20029;-72
2022/01/27 09:04:12;;;;;;;45.38;18.48;;;5.30;99.90;;;;;;5011156;28;20498;-72
2022/01/27 09:06:38;;;;;;;37.65;16.48;;;5.30;99.90;;;;;;4998230;28;21566;-74
2022/01/27 09:09:05;;;;;;;39.53;17.63;;;5.30;99.90;;;;;;4997863;28;20038;-73
2022/01/27 09:11:32;;;;;;;36.55;16.60;;;5.30;99.90;;;;;;4997888;28;20022;-72
2022/01/27 09:13:59;;;;;;;44.75;17.80;;;5.40;99.90;;;;;;4998661;28;20026;-73
2022/01/27 09:16:27;;;;;;;38.55;16.80;;;5.40;99.90;;;;;;4996443;28;20022;-74
2022/01/27 09:18:54;;;;;;;39.15;15.65;;;5.40;99.90;;;;;;4998502;28;20036;-73
2022/01/27 09:21:24;;;;;;;39.92;16.83;;;5.40;99.90;;;;;;4995612;28;20073;-74
2022/01/27 09:23:51;;;;;;;35.73;15.20;;;5.40;99.90;;;;;;4996723;28;20862;-73
2022/01/27 09:27:18;;;;;;;36.95;16.75;;;5.50;99.90;;;;;;4996743;28;20037;-74
2022/01/27 09:29:12;;;;;;;31.42;14.68;;;5.50;99.90;;;;;;4987280;28;20117;-73
2022/01/27 09:31:38;;;;;;;35.50;14.57;;;5.50;99.90;;;;;;4999408;28;20111;-74
2022/01/27 09:34:04;;;;;;;30.60;14.15;;;5.50;99.90;;;;;;4996218;28;20061;-74
2022/01/27 09:36:30;;;;;;;29.90;13.70;;;5.50;99.90;;;;;;4996123;28;20030;-73
2022/01/27 09:38:55;;;;;;;23.88;12.48;;;5.60;99.90;;;;;;4997182;28;20033;-74
2022/01/27 09:41:22;;;;;;;29.27;12.75;;;5.60;99.90;;;;;;4996779;28;20018;-74
2022/01/27 09:43:53;;;;;;;24.17;12.68;;;5.60;99.90;;;;;;4996974;28;20392;-73
2022/01/27 09:46:20;;;;;;;28.38;13.40;;;5.60;99.90;;;;;;4994101;28;20030;-73
2022/01/27 09:48:48;;;;;;;27.48;11.98;;;5.60;99.90;;;;;;4991441;28;20109;-73
2022/01/27 09:51:38;;;;;;;26.65;11.48;;;5.60;99.90;;;;;;4996176;28;20053;-74
2022/01/27 09:54:04;;;;;;;26.95;11.07;;;5.70;99.90;;;;;;4994397;28;20511;-73
2022/01/27 09:56:31;;;;;;;25.25;11.07;;;5.70;99.90;;;;;;4998714;28;20148;-73
2022/01/27 09:58:56;;;;;;;21.80;10.75;;;5.70;99.90;;;;;;4997237;28;20030;-74
2022/01/27 10:01:22;;;;;;;23.63;11.57;;;5.70;99.90;;;;;;4995619;28;20156;-74
2022/01/27 10:04:06;;;;;;;20.65;10.30;;;5.80;99.90;;;;;;4998605;28;20499;-74
2022/01/27 10:06:35;;;;;;;18.92;9.32;;;5.90;99.90;;;;;;4998389;28;20030;-72
2022/01/27 10:09:10;;;;;;;18.48;9.48;;;5.80;99.90;;;;;;4996619;28;20072;-73
2022/01/27 10:11:36;;;;;;;19.42;9.85;;;5.90;99.90;;;;;;5001796;28;20100;-72
2022/01/27 10:14:25;;;;;;;19.65;9.60;;;5.90;99.90;;;;;;4994355;28;20515;-73
2022/01/27 10:16:54;;;;;;;18.83;9.38;;;5.90;99.90;;;;;;4998268;28;20480;-74
2022/01/27 10:19:22;;;;;;;19.10;9.55;;;5.90;99.90;;;;;;4995971;28;20085;-74
2022/01/27 10:21:49;;;;;;;24.00;10.48;;;5.90;99.90;;;;;;4994675;28;20022;-72
2022/01/27 10:24:19;;;;;;;25.10;10.50;;;5.90;99.90;;;;;;4998233;28;20033;-73
2022/01/27 10:26:52;;;;;;;26.25;11.07;;;5.90;99.90;;;;;;4999219;28;20022;-71
2022/01/27 10:29:32;;;;;;;24.35;11.50;;;6.00;99.90;;;;;;4996978;28;20116;-72
2022/01/27 10:32:06;;;;;;;24.70;11.25;;;6.00;99.90;;;;;;4998341;28;20030;-73
2022/01/27 10:34:55;;;;;;;22.08;10.48;;;6.10;99.90;;;;;;4999431;28;20030;-72
2022/01/27 10:37:21;;;;;;;32.08;12.85;;;6.10;99.90;;;;;;4998392;28;20034;-73
2022/01/27 10:39:48;;;;;;;26.95;11.77;;;6.20;99.90;;;;;;4996958;28;20391;-72
2022/01/27 10:42:14;;;;;;;34.38;12.98;;;6.20;99.90;;;;;;4995108;28;20166;-73
2022/01/27 10:44:47;;;;;;;26.95;12.23;;;6.30;99.90;;;;;;4994473;28;20066;-73
2022/01/27 10:47:21;;;;;;;35.05;13.73;;;6.30;99.90;;;;;;4996994;28;20100;-74
2022/01/27 10:50:01;;;;;;;44.17;14.80;;;6.40;99.90;;;;;;4994547;28;20041;-73
2022/01/27 10:52:39;;;;;;;36.90;14.32;;;6.40;99.90;;;;;;4995941;28;20029;-73
2022/01/27 10:55:06;;;;;;;35.17;15.15;;;6.50;99.90;;;;;;4996797;28;20120;-73
2022/01/27 10:57:32;;;;;;;39.53;14.63;;;6.50;99.90;;;;;;5008590;28;20026;-73
2022/01/27 11:00:09;;;;;;;35.85;15.80;;;6.50;99.90;;;;;;5000801;28;20056;-73
2022/01/27 11:02:56;;;;;;;50.10;15.95;;;6.60;99.90;;;;;;4997755;28;20062;-72
2022/01/27 11:05:24;;;;;;;43.28;15.20;;;6.70;99.90;;;;;;4994804;28;20496;-73
2022/01/27 11:07:50;;;;;;;41.72;14.60;;;6.70;99.90;;;;;;4992509;28;20498;-72
2022/01/27 11:10:18;;;;;;;39.40;14.50;;;6.70;99.90;;;;;;4997331;28;20018;-73
2022/01/27 11:12:45;;;;;;;36.90;14.25;;;6.70;99.90;;;;;;4993152;28;20034;-73
2022/01/27 11:15:13;;;;;;;46.47;14.05;;;6.80;99.90;;;;;;4996764;28;20033;-72
2022/01/27 11:17:40;;;;;;;44.58;14.27;;;6.90;99.90;;;;;;4997610;28;20034;-73
2022/01/27 11:28:01;;;;;;;52.63;12.38;;;7.00;99.90;;;;;;4991367;28;20027;-72
2022/01/27 11:30:45;;;;;;;42.67;10.95;;;7.10;99.90;;;;;;4996588;28;20030;-73
2022/01/27 11:33:16;;;;;;;45.65;11.20;;;7.10;99.90;;;;;;4995401;28;20461;-73
2022/01/27 11:35:43;;;;;;;33.42;11.40;;;7.10;99.90;;;;;;4994112;28;20037;-71
2022/01/27 11:38:10;;;;;;;35.38;9.15;;;7.20;99.90;;;;;;4994120;28;20030;-71
2022/01/27 11:40:42;;;;;;;34.83;8.40;;;7.20;99.90;;;;;;4995325;28;20034;-72
2022/01/27 11:43:11;;;;;;;33.92;8.50;;;7.20;99.90;;;;;;4994646;28;20057;-72
2022/01/27 11:45:52;;;;;;;37.53;8.50;;;7.30;99.90;;;;;;4992735;28;20029;-74
2022/01/27 11:48:26;;;;;;;47.30;7.72;;;7.30;99.90;;;;;;4995415;28;20030;-71
2022/01/27 11:51:13;;;;;;;38.38;7.32;;;7.50;99.90;;;;;;4988974;28;20026;-72
2022/01/27 11:53:50;;;;;;;48.00;6.88;;;7.50;99.90;;;;;;4994102;28;20385;-73
2022/01/27 11:56:27;;;;;;;40.45;7.15;;;7.50;99.90;;;;;;4991615;28;20026;-71
2022/01/27 11:58:56;;;;;;;32.83;5.85;;;7.50;99.90;;;;;;4998196;28;20032;-71
2022/01/27 12:01:30;;;;;;;42.80;7.28;;;7.50;99.90;;;;;;4997665;28;20030;-71
2022/01/27 12:04:07;;;;;;;41.30;6.47;;;7.60;99.90;;;;;;4995645;28;20456;-72
2022/01/27 12:06:34;;;;;;;37.42;7.13;;;7.80;99.90;;;;;;4992234;28;20089;-74
2022/01/27 12:09:21;;;;;;;36.83;5.65;;;7.80;99.90;;;;;;4996053;28;20451;-73
2022/01/27 12:11:48;;;;;;;30.83;5.65;;;7.90;99.90;;;;;;4994786;28;20408;-73
2022/01/27 12:14:18;;;;;;;29.92;6.05;;;7.90;99.90;;;;;;4994794;28;20031;-73
2022/01/27 12:19:15;;;;;;;36.20;5.75;;;8.00;99.90;;;;;;4994118;28;20041;-71
2022/01/27 12:21:59;;;;;;;27.25;5.53;;;8.00;99.90;;;;;;4995604;28;20105;-72
2022/01/27 12:24:28;;;;;;;29.15;4.70;;;7.90;99.90;;;;;;4995842;28;20045;-71
2022/01/27 12:27:02;;;;;;;34.40;5.38;;;7.90;99.90;;;;;;4993223;28;20105;-71
2022/01/27 12:29:30;;;;;;;39.05;6.82;;;7.90;99.90;;;;;;4995075;28;20057;-71
2022/01/27 12:32:00;;;;;;;30.30;5.47;;;8.00;99.90;;;;;;4994633;28;20408;-71
2022/01/27 12:34:27;;;;;;;29.65;5.72;;;8.00;99.90;;;;;;4998267;28;20424;-72
2022/01/27 12:36:56;;;;;;;28.80;6.05;;;8.00;99.90;;;;;;4998843;28;20101;-72
2022/01/27 12:39:23;;;;;;;35.95;4.95;;;8.00;99.90;;;;;;4996733;28;20026;-72
2022/01/27 12:41:54;;;;;;;37.30;4.85;;;7.90;99.90;;;;;;5002132;28;20030;-72
2022/01/27 12:44:21;;;;;;;30.20;5.20;;;7.80;99.90;;;;;;5004482;28;20038;-72
2022/01/27 12:47:21;;;;;;;29.90;5.50;;;7.80;99.90;;;;;;4998472;28;20256;-72
2022/01/27 12:49:49;;;;;;;32.45;4.78;;;7.80;99.90;;;;;;4996877;28;20549;-72
2022/01/27 12:52:26;;;;;;;32.58;5.38;;;7.70;99.90;;;;;;4998410;28;20475;-70
2022/01/27 12:54:52;;;;;;;37.83;5.05;;;7.80;99.90;;;;;;4998599;28;20053;-73
2022/01/27 12:57:26;;;;;;;33.97;4.75;;;7.80;99.90;;;;;;5000078;28;20471;-72
2022/01/27 12:59:53;;;;;;;28.45;4.53;;;7.80;99.90;;;;;;4998253;28;20492;-71
2022/01/27 13:02:21;;;;;;;22.73;4.18;;;7.90;99.90;;;;;;5000862;28;20034;-72
2022/01/27 13:04:57;;;;;;;25.85;4.35;;;7.80;99.90;;;;;;4993743;28;20033;-73
2022/01/27 13:07:25;;;;;;;28.67;4.75;;;7.90;99.90;;;;;;4997463;28;20663;-72
2022/01/27 13:09:55;;;;;;;24.48;5.25;;;7.80;99.90;;;;;;4998556;28;20035;-71
2022/01/27 13:12:26;;;;;;;28.77;3.92;;;7.80;99.90;;;;;;4996272;28;20031;-72
2022/01/27 13:15:11;;;;;;;33.72;5.75;;;7.80;99.90;;;;;;4997102;28;20484;-71
2022/01/27 13:17:45;;;;;;;28.27;5.03;;;7.80;99.90;;;;;;5005193;28;20098;-71
2022/01/27 13:20:18;;;;;;;31.10;4.90;;;7.80;99.90;;;;;;5008011;28;20030;-72
2022/01/27 13:22:45;;;;;;;31.08;4.50;;;7.80;99.90;;;;;;4996987;28;20022;-72
2022/01/27 13:25:11;;;;;;;30.90;4.53;;;7.70;99.90;;;;;;4994906;28;20542;-71
2022/01/27 13:27:37;;;;;;;27.10;4.30;;;7.70;99.90;;;;;;4995340;28;20037;-72
2022/01/27 13:30:06;;;;;;;27.42;6.03;;;7.70;99.90;;;;;;4999007;28;20084;-71
2022/01/27 13:32:31;;;;;;;26.38;5.15;;;7.70;99.90;;;;;;4999736;28;20033;-72
2022/01/27 13:34:57;;;;;;;21.13;3.60;;;7.80;99.90;;;;;;4995464;28;20030;-70
2022/01/27 13:37:47;;;;;;;29.80;5.03;;;7.70;99.90;;;;;;4993217;28;20343;-72
2022/01/27 13:43:10;;;;;;;20.17;3.08;;;7.70;99.90;;;;;;4998155;28;20503;-72
2022/01/27 13:45:36;;;;;;;28.35;5.38;;;7.70;99.90;;;;;;4999468;28;20033;-72
2022/01/27 13:48:22;;;;;;;28.55;5.60;;;7.70;99.90;;;;;;4993962;28;20148;-72